Charlton City, Massachusetts
Current Conditions -  °F | °C
As of 10:41 PM on Wednesday 22 Oct 2014 (Local Time) from KORH Reporting Station
Thunderstorm Thunderstorm  
Wind Chill: 38°   Ceiling: 400
Heat Index: 45°   Visibility: 3mi
Dew Point: 44°   Wind: 17mph
Humidity: 97%   Direction: 40°NE
Pressure: 29.83"   Gusts: 36mph
Location:  42.15°N, 71.99°W
Report Text: KORH 230241Z AUTO 04015G31KT 3SM VCTS +RA BR OVC004 07/07 A2983 RMK AO2 PK WND 05034/0228 LTG DSNT E P0012 T00720067
Loading
Personal Weather Stations






























Interactive Weather Map
Tropical Storm Tracking
New forecast layout! Learn more

10-Day Weather Forecast

Advertisements
Track Severe Weather on mobile